Terminal Aerodrome Forecast
Issued by NWS

Home | Current Version | Previous Version | Text Only | Print | Product List | Glossary Off
Versions: 1 2 3 4 5 6 7 8 9 10 11 12 13 14 15 16 17 18 19 20

000
FTUS43 KMPX 272337
TAFAXN
TAF
KAXN 272337Z 2800/2824 15013KT P6SM SCT030
     FM280600 14014KT P6SM VCTS BKN035CB
     FM280900 15015KT 5SM -SHRA BR OVC025
      TEMPO 2809/2812 2SM TSRA OVC010CB
     FM281200 16016G24KT 4SM BR OVC007
     FM281500 19015G22KT 6SM BR SCT008 OVC020
     FM281900 25016G25KT P6SM BKN035=

USA.gov is the U.S. government's official web portal to all federal, state and local government web resources and services.